Time;durP1;ratioP1;P1;durP2;ratioP2;P2;SDS_P1;SDS_P2;PMS_P1;PMS_P2;Temp;Humidity;BMP_temperature;BMP_pressure;BME280_temperature;BME280_humidity;BME280_pressure;Samples;Min_cycle;Max_cycle;Signal;HPM_P1;HPM_P2
2021/12/24 00:02:01;;;;;;;19.93;11.40;;;9.10;99.90;;;;;;4999032;28;20288;-80
2021/12/24 00:04:27;;;;;;;17.20;9.87;;;9.20;99.90;;;;;;4999092;28;20198;-80
2021/12/24 00:06:53;;;;;;;20.50;11.57;;;9.10;99.90;;;;;;4999332;28;20242;-80
2021/12/24 00:09:22;;;;;;;19.60;12.07;;;9.10;99.90;;;;;;4998417;28;20435;-80
2021/12/24 00:11:58;;;;;;;22.40;12.83;;;9.10;99.90;;;;;;4998161;28;20441;-79
2021/12/24 00:14:26;;;;;;;18.53;10.90;;;9.00;99.90;;;;;;4998317;28;20482;-80
2021/12/24 00:16:55;;;;;;;19.60;12.07;;;9.10;99.90;;;;;;4997885;28;20427;-80
2021/12/24 00:35:33;;;;;;;19.77;11.77;;;8.90;99.90;;;;;;4999287;28;20995;-80
2021/12/24 00:38:03;;;;;;;20.20;11.43;;;8.90;99.90;;;;;;4997856;28;20432;-80
2021/12/24 00:40:34;;;;;;;15.20;10.57;;;8.90;99.90;;;;;;4997817;28;20474;-80
2021/12/24 00:43:00;;;;;;;15.70;10.87;;;8.90;99.90;;;;;;4972150;23;20581;-85
2021/12/24 00:45:32;;;;;;;18.63;11.07;;;8.90;99.90;;;;;;4955008;29;20429;-84
2021/12/24 00:47:59;;;;;;;20.93;10.43;;;9.00;99.90;;;;;;4954120;29;21146;-84
2021/12/24 00:50:29;;;;;;;15.93;10.07;;;9.00;99.90;;;;;;4938611;29;20438;-85
2021/12/24 00:53:02;;;;;;;19.27;10.60;;;9.00;99.90;;;;;;4937850;29;20460;-84
2021/12/24 00:55:31;;;;;;;14.13;9.93;;;9.10;99.90;;;;;;4937818;29;20419;-84
2021/12/24 00:58:02;;;;;;;15.57;10.43;;;9.10;99.90;;;;;;4937903;29;20431;-84
2021/12/24 01:00:32;;;;;;;15.73;10.10;;;9.00;99.90;;;;;;4937590;29;20467;-84
2021/12/24 01:02:59;;;;;;;14.33;8.90;;;9.00;99.90;;;;;;4937538;29;20972;-84
2021/12/24 01:05:27;;;;;;;11.87;9.20;;;9.00;99.90;;;;;;4937690;29;20415;-84
2021/12/24 01:07:53;;;;;;;15.70;9.20;;;9.10;99.90;;;;;;4937473;29;20436;-84
2021/12/24 01:10:31;;;;;;;16.90;9.70;;;9.10;99.90;;;;;;4954337;29;20419;-84
2021/12/24 01:12:57;;;;;;;15.30;9.30;;;9.10;99.90;;;;;;4937191;29;20211;-85
2021/12/24 01:15:23;;;;;;;15.00;9.70;;;9.10;99.90;;;;;;4937349;29;20594;-84
2021/12/24 01:18:01;;;;;;;15.10;9.33;;;9.10;99.90;;;;;;4937227;29;20482;-84
2021/12/24 01:20:37;;;;;;;16.00;9.90;;;9.10;99.90;;;;;;4937015;29;20466;-85
2021/12/24 01:25:54;;;;;;;13.50;9.30;;;9.10;99.90;;;;;;4954797;29;20413;-85
2021/12/24 01:28:46;;;;;;;15.53;9.73;;;9.10;99.90;;;;;;4937303;29;20446;-85
2021/12/24 01:39:39;;;;;;;16.80;9.70;;;9.10;99.90;;;;;;4954166;29;20493;-85
2021/12/24 01:44:53;;;;;;;14.23;9.73;;;9.10;99.90;;;;;;4954081;28;20412;-84
2021/12/24 01:47:19;;;;;;;12.10;9.27;;;9.10;99.90;;;;;;4954065;29;20414;-84
2021/12/24 01:49:45;;;;;;;16.07;10.07;;;9.10;99.90;;;;;;4952775;29;20198;-85
2021/12/24 01:52:11;;;;;;;16.43;8.83;;;9.10;99.90;;;;;;4936990;29;20297;-84
2021/12/24 01:54:39;;;;;;;16.97;10.23;;;9.00;99.90;;;;;;4953997;28;20429;-85
2021/12/24 01:57:05;;;;;;;12.80;8.87;;;9.10;99.90;;;;;;4954415;29;20429;-85
2021/12/24 01:59:30;;;;;;;12.93;8.90;;;9.10;99.90;;;;;;4936579;29;20472;-85
2021/12/24 02:01:56;;;;;;;12.60;8.80;;;9.10;99.90;;;;;;4936579;29;20816;-86
2021/12/24 02:04:22;;;;;;;14.10;8.73;;;9.20;99.90;;;;;;4952931;29;20179;-86
2021/12/24 02:06:49;;;;;;;12.17;8.30;;;9.20;99.90;;;;;;4936928;29;20205;-85
2021/12/24 02:09:15;;;;;;;14.20;8.33;;;9.20;99.90;;;;;;4953638;29;20265;-85
2021/12/24 02:11:41;;;;;;;11.47;8.80;;;9.30;99.90;;;;;;4953860;28;20442;-85
2021/12/24 02:14:10;;;;;;;11.13;8.60;;;9.30;99.90;;;;;;4936745;29;20490;-85
2021/12/24 02:16:52;;;;;;;12.87;8.50;;;9.30;99.90;;;;;;4936508;29;20430;-85
2021/12/24 02:30:17;;;;;;;12.43;8.70;;;9.30;99.90;;;;;;4954941;29;20490;-84
2021/12/24 02:32:43;;;;;;;13.07;9.23;;;9.30;99.90;;;;;;4936242;29;20953;-85
2021/12/24 02:35:10;;;;;;;14.80;9.30;;;9.40;99.90;;;;;;4953609;29;20422;-85
2021/12/24 02:37:36;;;;;;;13.67;8.87;;;9.40;99.90;;;;;;4936383;29;20183;-85
2021/12/24 02:40:04;;;;;;;14.40;9.50;;;9.40;99.90;;;;;;4953716;29;20463;-85
2021/12/24 02:42:30;;;;;;;11.37;8.73;;;9.40;99.90;;;;;;4953886;28;20506;-84
2021/12/24 02:44:56;;;;;;;13.47;9.20;;;9.40;99.90;;;;;;4953989;28;20419;-84
2021/12/24 02:54:59;;;;;;;12.47;8.33;;;9.40;99.90;;;;;;4954357;28;20195;-85
2021/12/24 02:57:27;;;;;;;12.67;8.67;;;9.40;99.90;;;;;;4956951;29;20422;-85
2021/12/24 03:00:07;;;;;;;13.23;9.23;;;9.40;99.90;;;;;;4939423;29;20239;-85
2021/12/24 03:02:34;;;;;;;12.17;8.10;;;9.40;99.90;;;;;;4939659;29;20446;-85
2021/12/24 03:05:01;;;;;;;16.63;9.90;;;9.40;99.90;;;;;;4956839;29;20418;-85
2021/12/24 03:07:27;;;;;;;15.37;10.03;;;9.40;99.90;;;;;;4955602;28;20856;-85
2021/12/24 03:09:53;;;;;;;15.90;10.30;;;9.40;99.90;;;;;;4955210;29;20423;-85
2021/12/24 03:12:19;;;;;;;15.53;8.97;;;9.40;99.90;;;;;;4939429;29;20199;-85
2021/12/24 03:14:45;;;;;;;14.53;8.57;;;9.40;99.90;;;;;;4955611;29;20956;-85
2021/12/24 03:17:15;;;;;;;13.30;9.27;;;9.40;99.90;;;;;;4939359;29;20422;-85
2021/12/24 03:19:41;;;;;;;13.43;9.97;;;9.30;99.90;;;;;;4939147;29;20242;-87
2021/12/24 03:22:30;;;;;;;16.13;9.97;;;9.30;99.90;;;;;;4939307;29;20434;-85
2021/12/24 03:24:55;;;;;;;14.23;8.77;;;9.30;99.90;;;;;;4956502;29;20190;-85
2021/12/24 03:27:22;;;;;;;13.67;9.00;;;9.40;99.90;;;;;;4939101;29;20427;-84
2021/12/24 03:29:49;;;;;;;12.30;8.50;;;9.30;99.90;;;;;;4954965;29;20564;-85
2021/12/24 03:32:14;;;;;;;16.63;9.10;;;9.30;99.90;;;;;;4956198;28;20442;-85
2021/12/24 03:34:41;;;;;;;13.53;8.77;;;9.40;99.90;;;;;;4956430;29;20498;-85
2021/12/24 03:37:07;;;;;;;16.30;9.03;;;9.30;99.90;;;;;;4939325;29;20211;-85
2021/12/24 03:39:33;;;;;;;18.10;9.20;;;9.30;99.90;;;;;;4939068;29;20586;-84
2021/12/24 03:41:59;;;;;;;14.93;9.97;;;9.30;99.90;;;;;;4938737;29;20455;-84
2021/12/24 03:44:36;;;;;;;17.77;9.63;;;9.20;99.90;;;;;;4956203;29;20486;-84
2021/12/24 03:47:12;;;;;;;13.20;10.00;;;9.20;99.90;;;;;;4938867;29;20308;-84
2021/12/24 03:52:32;;;;;;;17.67;9.03;;;9.20;99.90;;;;;;4956800;28;20447;-85
2021/12/24 03:54:58;;;;;;;16.47;8.80;;;9.20;99.90;;;;;;4956398;29;20429;-85
2021/12/24 03:57:31;;;;;;;15.73;11.00;;;9.20;99.90;;;;;;4938923;29;20423;-84
2021/12/24 04:00:11;;;;;;;14.17;9.37;;;9.20;99.90;;;;;;4939305;29;20530;-84
2021/12/24 04:02:38;;;;;;;13.90;10.60;;;9.30;99.90;;;;;;4938714;29;20438;-85
2021/12/24 04:05:05;;;;;;;12.83;9.13;;;9.30;99.90;;;;;;4938871;29;20478;-85
2021/12/24 04:07:30;;;;;;;14.77;8.97;;;9.30;99.90;;;;;;4953749;28;20415;-84
2021/12/24 04:12:21;;;;;;;15.20;9.20;;;9.30;99.90;;;;;;4955626;28;20218;-85
2021/12/24 04:14:47;;;;;;;13.70;10.53;;;9.30;99.90;;;;;;4955625;29;20218;-85
2021/12/24 04:17:12;;;;;;;12.73;9.17;;;9.30;99.90;;;;;;4938471;29;20187;-85
2021/12/24 04:24:51;;;;;;;12.30;8.80;;;9.30;99.90;;;;;;4953985;29;20210;-85
2021/12/24 04:25:09;;;;;;;13.50;8.50;;;9.30;99.90;;;;;;4955609;29;20465;-84
2021/12/24 04:27:34;;;;;;;16.73;8.90;;;9.30;99.90;;;;;;4938272;29;20454;-84
2021/12/24 04:30:14;;;;;;;15.47;9.40;;;9.40;99.90;;;;;;4937867;29;20454;-85
2021/12/24 04:35:46;;;;;;;16.63;9.60;;;9.40;99.90;;;;;;4955429;29;20426;-85
2021/12/24 04:51:48;;;;;;;17.13;9.90;;;9.50;99.90;;;;;;4956923;28;20445;-84
2021/12/24 05:05:20;;;;;;;15.53;11.20;;;9.70;99.90;;;;;;4956536;29;20450;-84
2021/12/24 05:10:12;;;;;;;16.77;10.27;;;9.70;99.90;;;;;;4954780;29;20953;-85
2021/12/24 05:12:37;;;;;;;15.63;9.50;;;9.70;99.90;;;;;;4937355;29;20285;-85
2021/12/24 05:15:07;;;;;;;18.33;10.50;;;9.80;99.90;;;;;;4938100;29;20560;-84
2021/12/24 05:23:02;;;;;;;19.47;10.50;;;9.80;99.90;;;;;;4958436;28;20477;-84
2021/12/24 05:25:27;;;;;;;14.67;10.70;;;9.70;99.90;;;;;;4955850;29;20423;-84
2021/12/24 05:27:55;;;;;;;14.07;9.40;;;9.80;99.90;;;;;;4937511;29;20482;-84
2021/12/24 05:30:22;;;;;;;16.30;9.70;;;9.80;99.90;;;;;;4954930;28;20610;-85
2021/12/24 05:32:48;;;;;;;12.13;8.57;;;9.90;99.90;;;;;;4938257;29;20451;-85
2021/12/24 05:35:13;;;;;;;14.40;10.03;;;9.80;99.90;;;;;;4938318;29;20438;-85
2021/12/24 05:37:39;;;;;;;14.17;8.83;;;9.80;99.90;;;;;;4953061;29;20241;-85
2021/12/24 05:40:06;;;;;;;16.53;11.10;;;9.80;99.90;;;;;;4954303;29;20213;-84
2021/12/24 05:42:33;;;;;;;13.40;9.77;;;9.80;99.90;;;;;;4953794;29;20542;-84
2021/12/24 05:45:05;;;;;;;17.17;10.13;;;9.80;99.90;;;;;;4954422;29;20414;-85
2021/12/24 05:47:31;;;;;;;14.90;10.03;;;9.90;99.90;;;;;;4953814;29;20478;-85
2021/12/24 05:49:57;;;;;;;14.57;9.40;;;9.80;99.90;;;;;;4953096;29;20453;-85
2021/12/24 05:52:23;;;;;;;16.97;11.37;;;9.70;99.90;;;;;;4937110;29;20206;-84
2021/12/24 05:55:17;;;;;;;14.23;10.00;;;9.80;99.90;;;;;;4952880;29;20438;-84
2021/12/24 05:57:43;;;;;;;16.83;10.03;;;9.80;99.90;;;;;;4952998;29;20407;-84
2021/12/24 06:00:10;;;;;;;12.20;9.27;;;9.80;99.90;;;;;;4952394;29;20476;-84
2021/12/24 06:02:36;;;;;;;15.10;9.50;;;9.80;99.90;;;;;;4952584;29;20253;-84
2021/12/24 06:05:02;;;;;;;14.77;9.60;;;9.80;99.90;;;;;;4953851;29;20414;-84
2021/12/24 06:07:27;;;;;;;17.07;9.87;;;9.80;99.90;;;;;;4936540;29;20179;-84
2021/12/24 06:09:53;;;;;;;15.20;9.57;;;9.90;99.90;;;;;;4936307;29;20513;-84
2021/12/24 06:12:18;;;;;;;14.30;9.17;;;9.80;99.90;;;;;;4936482;29;20203;-84
2021/12/24 06:14:46;;;;;;;16.97;11.93;;;9.80;99.90;;;;;;4936652;29;20183;-84
2021/12/24 06:17:17;;;;;;;19.70;8.93;;;9.80;99.90;;;;;;4953809;29;20266;-84
2021/12/24 06:19:43;;;;;;;15.30;10.13;;;9.80;99.90;;;;;;4936308;29;20489;-84
2021/12/24 06:22:09;;;;;;;18.60;9.10;;;9.70;99.90;;;;;;4936386;29;20470;-84
2021/12/24 06:24:35;;;;;;;17.80;9.17;;;9.80;99.90;;;;;;4936643;29;20213;-85
2021/12/24 06:27:01;;;;;;;15.30;9.47;;;9.80;99.90;;;;;;4936423;29;20912;-84
2021/12/24 06:29:27;;;;;;;14.70;9.90;;;9.90;99.90;;;;;;4952298;28;20437;-84
2021/12/24 06:31:52;;;;;;;14.07;8.40;;;9.80;99.90;;;;;;4955954;29;20237;-85
2021/12/24 06:34:19;;;;;;;15.00;9.77;;;9.90;99.90;;;;;;4940564;29;20202;-85
2021/12/24 06:36:47;;;;;;;19.77;10.77;;;9.90;99.90;;;;;;4940028;29;20186;-85
2021/12/24 06:39:13;;;;;;;13.87;9.17;;;9.90;99.90;;;;;;4955841;29;20521;-84
2021/12/24 06:41:39;;;;;;;14.60;10.10;;;9.90;99.90;;;;;;4957171;29;20972;-84
2021/12/24 06:44:09;;;;;;;13.63;8.47;;;9.80;99.90;;;;;;5012568;23;20565;-84
2021/12/24 06:46:35;;;;;;;15.87;9.23;;;9.80;99.90;;;;;;5014685;28;20184;-84
2021/12/24 06:49:00;;;;;;;17.00;10.60;;;9.80;99.90;;;;;;5014621;28;20431;-84
2021/12/24 06:51:27;;;;;;;13.13;9.47;;;9.80;99.90;;;;;;5014620;28;20187;-84
2021/12/24 06:53:53;;;;;;;18.90;11.43;;;9.80;99.90;;;;;;5014681;28;20679;-84
2021/12/24 06:56:19;;;;;;;13.23;9.40;;;9.80;99.90;;;;;;5014441;28;20427;-84
2021/12/24 06:58:45;;;;;;;18.30;10.57;;;9.80;99.90;;;;;;5015592;28;20412;-84
2021/12/24 07:01:10;;;;;;;16.47;11.03;;;9.90;99.90;;;;;;5014342;28;20177;-83
2021/12/24 07:03:37;;;;;;;27.87;10.60;;;9.90;99.90;;;;;;5014644;28;20295;-85
2021/12/24 07:06:03;;;;;;;13.63;9.07;;;9.80;99.90;;;;;;5014465;28;20255;-85
2021/12/24 07:08:29;;;;;;;15.60;9.47;;;9.80;99.90;;;;;;5015977;28;20469;-83
2021/12/24 07:10:55;;;;;;;18.17;10.80;;;9.90;99.90;;;;;;4998214;28;20427;-82
2021/12/24 07:13:21;;;;;;;18.13;11.27;;;9.80;99.90;;;;;;5015702;28;20450;-82
2021/12/24 07:15:46;;;;;;;21.73;10.17;;;9.80;99.90;;;;;;5005894;28;20213;-82
2021/12/24 07:18:12;;;;;;;17.33;10.00;;;9.80;99.90;;;;;;4996581;28;20174;-82
2021/12/24 07:20:37;;;;;;;15.37;10.50;;;9.90;99.90;;;;;;4978368;28;20293;-84
2021/12/24 07:23:04;;;;;;;18.90;10.50;;;9.80;99.90;;;;;;4978449;28;20181;-83
2021/12/24 07:25:30;;;;;;;22.43;9.87;;;9.80;99.90;;;;;;4995747;28;20181;-82
2021/12/24 07:27:56;;;;;;;18.30;10.67;;;9.90;99.90;;;;;;4978304;28;20483;-82
2021/12/24 07:30:22;;;;;;;14.70;9.30;;;9.80;99.90;;;;;;4995452;28;20416;-82
2021/12/24 07:32:48;;;;;;;18.17;11.30;;;9.80;99.90;;;;;;4978353;28;20185;-82
2021/12/24 07:35:17;;;;;;;18.10;10.57;;;9.80;99.90;;;;;;4978840;28;20425;-82
2021/12/24 07:37:42;;;;;;;17.97;11.17;;;9.60;99.90;;;;;;4978096;28;20516;-82
2021/12/24 07:40:10;;;;;;;21.00;12.13;;;9.70;99.90;;;;;;4994183;28;20602;-82
2021/12/24 07:42:37;;;;;;;21.00;12.50;;;9.60;99.90;;;;;;4977749;28;20257;-85
2021/12/24 07:45:05;;;;;;;21.77;11.77;;;9.60;99.90;;;;;;4977838;28;20484;-85
2021/12/24 07:47:36;;;;;;;22.33;12.13;;;9.50;99.90;;;;;;4978431;28;20425;-85
2021/12/24 07:50:15;;;;;;;20.50;12.77;;;9.50;99.90;;;;;;4977893;28;20472;-84
2021/12/24 07:52:41;;;;;;;21.93;12.20;;;9.50;99.90;;;;;;4977978;28;20935;-85
2021/12/24 07:55:09;;;;;;;16.53;13.33;;;9.50;99.90;;;;;;4977727;28;20495;-85
2021/12/24 07:57:35;;;;;;;17.80;11.67;;;9.40;99.90;;;;;;4978104;28;20607;-84
2021/12/24 08:00:02;;;;;;;17.70;11.67;;;9.40;99.90;;;;;;4977729;28;20461;-84
2021/12/24 08:02:29;;;;;;;24.03;12.00;;;9.40;99.90;;;;;;4977883;28;20487;-84
2021/12/24 08:05:05;;;;;;;20.47;12.50;;;9.40;99.90;;;;;;4977654;28;20513;-85
2021/12/24 08:07:30;;;;;;;18.30;11.70;;;9.40;99.90;;;;;;4995215;28;20409;-84
2021/12/24 08:09:56;;;;;;;26.20;12.47;;;9.40;99.90;;;;;;4977513;28;20928;-84
2021/12/24 08:12:21;;;;;;;17.80;10.83;;;9.40;99.90;;;;;;4977683;28;20182;-85
2021/12/24 08:14:47;;;;;;;20.10;10.07;;;9.40;99.90;;;;;;4977543;28;20207;-85
2021/12/24 08:17:14;;;;;;;17.73;9.83;;;9.50;99.90;;;;;;4995028;28;20210;-84
2021/12/24 08:19:39;;;;;;;16.27;9.90;;;9.50;99.90;;;;;;4994748;28;20452;-84
2021/12/24 08:22:06;;;;;;;19.13;10.00;;;9.50;99.90;;;;;;4993746;28;20476;-84
2021/12/24 08:24:32;;;;;;;18.37;9.53;;;9.60;99.90;;;;;;4977496;28;20284;-85
2021/12/24 08:26:58;;;;;;;15.33;10.83;;;9.60;99.90;;;;;;4977413;28;20512;-85
2021/12/24 08:29:24;;;;;;;14.23;9.07;;;9.60;99.90;;;;;;4977243;28;20429;-85
2021/12/24 08:31:50;;;;;;;19.83;9.83;;;9.60;99.90;;;;;;4993867;28;20516;-84
2021/12/24 08:34:18;;;;;;;18.27;10.47;;;9.60;99.90;;;;;;4999520;28;20278;-85
2021/12/24 08:36:45;;;;;;;15.53;9.00;;;9.70;99.90;;;;;;4984964;28;20417;-85
2021/12/24 08:39:11;;;;;;;18.20;9.90;;;9.70;99.90;;;;;;4999117;28;20961;-85
2021/12/24 08:41:36;;;;;;;16.93;9.10;;;9.70;99.90;;;;;;4981291;28;20433;-85
2021/12/24 08:44:03;;;;;;;18.03;9.07;;;9.70;99.90;;;;;;4980412;28;20300;-85
2021/12/24 08:46:28;;;;;;;25.70;11.10;;;9.80;99.90;;;;;;4997724;28;20205;-85
2021/12/24 08:48:54;;;;;;;24.17;11.10;;;9.80;99.90;;;;;;4997344;28;20428;-84
2021/12/24 08:51:20;;;;;;;14.20;7.67;;;9.80;99.90;;;;;;4981580;28;20189;-85
2021/12/24 08:53:45;;;;;;;13.07;8.03;;;9.70;99.90;;;;;;4982104;28;20469;-85
2021/12/24 08:56:11;;;;;;;16.33;8.27;;;9.80;99.90;;;;;;4997891;28;20186;-85
2021/12/24 08:58:37;;;;;;;15.13;8.40;;;9.80;99.90;;;;;;4981663;28;20189;-85
2021/12/24 09:01:04;;;;;;;15.90;8.23;;;9.80;99.90;;;;;;4980848;28;20206;-86
2021/12/24 09:03:30;;;;;;;11.90;7.03;;;9.90;99.90;;;;;;4981434;28;20201;-86
2021/12/24 09:05:55;;;;;;;16.33;7.53;;;10.00;99.90;;;;;;4981235;28;20428;-86
2021/12/24 09:08:21;;;;;;;19.37;8.33;;;10.00;99.90;;;;;;4981342;28;20181;-85
2021/12/24 09:10:47;;;;;;;20.93;7.70;;;10.10;99.90;;;;;;4998429;28;20188;-85
2021/12/24 09:13:12;;;;;;;15.53;8.50;;;10.10;99.90;;;;;;4996051;28;20236;-86
2021/12/24 09:15:40;;;;;;;14.27;8.23;;;10.10;99.90;;;;;;4995872;28;20448;-85
2021/12/24 09:18:06;;;;;;;15.90;8.73;;;10.10;99.90;;;;;;4980421;28;20562;-85
2021/12/24 09:20:38;;;;;;;14.07;7.50;;;10.20;99.90;;;;;;4980063;28;20483;-85
2021/12/24 09:23:11;;;;;;;18.40;8.73;;;10.20;99.90;;;;;;4980107;28;20547;-85
2021/12/24 09:25:38;;;;;;;19.53;9.63;;;10.20;99.90;;;;;;4979173;28;20417;-85
2021/12/24 09:28:04;;;;;;;13.33;7.57;;;10.10;99.90;;;;;;4976276;28;20436;-84
2021/12/24 09:30:30;;;;;;;16.00;8.13;;;10.20;99.90;;;;;;4992252;28;20427;-85
2021/12/24 09:32:59;;;;;;;18.40;7.57;;;10.20;99.90;;;;;;4975887;28;20948;-85
2021/12/24 09:35:26;;;;;;;13.13;7.77;;;10.30;99.90;;;;;;4992205;28;20416;-84
2021/12/24 09:37:52;;;;;;;17.73;8.43;;;10.20;99.90;;;;;;4993285;28;20792;-85
2021/12/24 09:40:19;;;;;;;14.20;9.57;;;10.20;99.90;;;;;;4975939;28;20488;-84
2021/12/24 09:42:45;;;;;;;15.00;9.20;;;10.20;99.90;;;;;;4991732;28;20429;-85
2021/12/24 09:48:00;;;;;;;22.87;7.83;;;10.30;99.90;;;;;;5570875;23;20559;-87
2021/12/24 09:50:28;;;;;;;15.87;8.17;;;10.20;99.90;;;;;;4974515;28;20858;-83
2021/12/24 09:52:54;;;;;;;13.57;8.03;;;10.20;99.90;;;;;;4992261;28;20193;-82
2021/12/24 09:55:24;;;;;;;12.20;8.10;;;10.20;99.90;;;;;;4973857;28;20421;-83
2021/12/24 09:57:50;;;;;;;11.67;7.60;;;10.20;99.90;;;;;;4956967;28;20450;-84
2021/12/24 10:00:19;;;;;;;13.80;7.87;;;10.20;99.90;;;;;;5014883;23;20550;-80
2021/12/24 10:02:52;;;;;;;12.77;7.33;;;10.20;99.90;;;;;;4993130;28;20495;-80
2021/12/24 10:05:37;;;;;;;11.63;7.53;;;10.20;99.90;;;;;;4994092;28;20408;-81
2021/12/24 10:08:18;;;;;;;10.40;7.07;;;10.20;99.90;;;;;;4994476;28;20819;-79
2021/12/24 10:11:29;;;;;;;14.43;7.50;;;10.20;99.90;;;;;;4975114;28;20999;-79
2021/12/24 10:14:45;;;;;;;18.63;7.30;;;10.30;99.90;;;;;;4998360;28;20893;-79
2021/12/24 10:18:24;;;;;;;11.70;7.23;;;10.30;99.90;;;;;;5006824;28;20458;-79
2021/12/24 10:21:23;;;;;;;18.43;8.27;;;10.40;99.90;;;;;;4912368;29;20482;-79
2021/12/24 10:24:26;;;;;;;9.80;6.80;;;10.40;99.90;;;;;;4913703;29;20496;-79
2021/12/24 10:30:14;;;;;;;12.70;8.00;;;10.40;99.90;;;;;;4936483;28;20496;-79
2021/12/24 10:32:40;;;;;;;14.40;7.77;;;10.50;99.90;;;;;;4956204;28;20512;-79
2021/12/24 10:35:18;;;;;;;13.33;7.93;;;10.50;99.90;;;;;;4984567;28;20467;-79
2021/12/24 10:37:44;;;;;;;12.73;7.97;;;10.60;99.90;;;;;;4993059;28;20193;-79
2021/12/24 10:40:10;;;;;;;12.43;8.40;;;10.50;99.90;;;;;;4992612;28;20472;-79
2021/12/24 10:42:39;;;;;;;12.70;8.57;;;10.70;99.90;;;;;;4998442;28;20192;-80
2021/12/24 10:45:10;;;;;;;21.23;8.20;;;10.80;99.90;;;;;;4974023;28;20924;-80
2021/12/24 10:47:40;;;;;;;15.93;8.07;;;10.90;99.90;;;;;;4993565;28;20500;-79
2021/12/24 10:50:29;;;;;;;13.33;6.87;;;10.80;99.90;;;;;;4992434;28;20442;-79
2021/12/24 10:53:32;;;;;;;12.10;7.00;;;10.90;99.90;;;;;;4992293;28;20413;-79
2021/12/24 10:55:57;;;;;;;10.63;6.73;;;10.90;99.90;;;;;;4982876;28;20438;-79
2021/12/24 10:58:25;;;;;;;11.37;7.03;;;10.80;99.90;;;;;;5012112;28;20412;-80
2021/12/24 11:00:53;;;;;;;11.70;7.50;;;10.80;99.90;;;;;;5011515;28;20229;-79
2021/12/24 11:03:22;;;;;;;9.33;6.33;;;10.80;99.90;;;;;;5005146;28;20436;-79
2021/12/24 11:06:02;;;;;;;10.40;6.60;;;10.80;99.90;;;;;;4983943;28;20432;-79
2021/12/24 11:08:27;;;;;;;11.20;6.57;;;10.70;99.90;;;;;;4986867;28;20918;-79
2021/12/24 11:10:59;;;;;;;15.60;6.40;;;10.70;99.90;;;;;;5009747;28;20450;-79
2021/12/24 11:13:39;;;;;;;10.37;6.50;;;10.70;99.90;;;;;;4993153;28;20420;-79
2021/12/24 11:16:06;;;;;;;11.97;7.10;;;10.70;99.90;;;;;;4991467;28;20408;-79
2021/12/24 11:18:39;;;;;;;16.10;7.43;;;10.60;99.90;;;;;;5003445;28;20435;-80
2021/12/24 11:21:17;;;;;;;12.10;7.33;;;10.70;99.90;;;;;;4979848;28;20827;-80
2021/12/24 11:23:43;;;;;;;13.93;7.73;;;10.70;99.90;;;;;;4974291;28;20492;-79
2021/12/24 11:26:39;;;;;;;14.50;7.30;;;10.70;99.90;;;;;;4997424;28;20885;-79
2021/12/24 11:29:05;;;;;;;13.00;7.17;;;10.80;99.90;;;;;;4989945;28;20193;-79
2021/12/24 11:31:32;;;;;;;17.17;8.60;;;10.70;99.90;;;;;;5008888;28;20439;-79
2021/12/24 11:33:58;;;;;;;13.13;7.07;;;10.70;99.90;;;;;;4999232;28;20699;-79
2021/12/24 11:36:25;;;;;;;18.93;7.80;;;10.70;99.90;;;;;;5004022;28;20420;-78
2021/12/24 11:38:57;;;;;;;13.27;7.30;;;10.60;99.90;;;;;;5004991;28;20197;-79
2021/12/24 11:41:26;;;;;;;13.23;6.93;;;10.70;99.90;;;;;;4998570;28;20444;-79
2021/12/24 11:43:54;;;;;;;14.27;7.67;;;10.70;99.90;;;;;;4998657;28;20428;-79
2021/12/24 11:46:22;;;;;;;12.60;8.13;;;10.80;99.90;;;;;;4977321;28;20827;-79
2021/12/24 11:48:51;;;;;;;14.43;8.70;;;10.80;99.90;;;;;;4977208;28;20914;-79
2021/12/24 11:51:23;;;;;;;10.73;7.80;;;11.00;99.90;;;;;;4958990;28;20482;-79
2021/12/24 11:53:51;;;;;;;11.90;9.13;;;11.10;99.90;;;;;;4976152;28;20424;-77
2021/12/24 11:56:19;;;;;;;17.47;8.00;;;11.20;99.90;;;;;;4988029;28;20468;-78
2021/12/24 11:58:53;;;;;;;13.87;7.13;;;11.40;99.90;;;;;;4988678;28;20491;-79
2021/12/24 12:01:22;;;;;;;15.83;7.80;;;11.50;99.90;;;;;;5013808;28;20448;-78
2021/12/24 12:03:56;;;;;;;13.40;6.77;;;11.80;99.90;;;;;;5014249;28;20412;-78
2021/12/24 12:06:22;;;;;;;14.50;7.07;;;12.00;99.90;;;;;;5014521;28;20392;-77
2021/12/24 12:08:49;;;;;;;9.87;5.70;;;12.10;99.90;;;;;;5014469;28;20404;-79
2021/12/24 12:11:21;;;;;;;8.43;5.87;;;12.00;99.90;;;;;;4996676;28;20205;-78
2021/12/24 12:13:51;;;;;;;15.13;6.90;;;11.80;99.90;;;;;;5014375;28;20412;-78
2021/12/24 12:16:29;;;;;;;9.30;6.10;;;11.60;99.90;;;;;;5014493;28;20929;-78
2021/12/24 12:19:31;;;;;;;15.27;6.20;;;11.50;99.90;;;;;;5014653;28;20455;-77
2021/12/24 12:22:12;;;;;;;12.40;5.87;;;11.30;99.90;;;;;;5014887;28;20426;-80
2021/12/24 12:24:57;;;;;;;10.50;6.53;;;11.40;99.90;;;;;;4998988;28;20424;-80
2021/12/24 12:27:39;;;;;;;15.00;6.40;;;11.30;99.90;;;;;;5015522;28;20431;-80
2021/12/24 12:30:28;;;;;;;19.80;6.20;;;11.20;99.90;;;;;;5016349;28;20474;-79
2021/12/24 12:33:07;;;;;;;12.37;6.43;;;11.20;99.90;;;;;;5005038;28;20428;-79
2021/12/24 12:35:40;;;;;;;11.27;5.93;;;11.20;99.90;;;;;;5015437;28;20423;-79
2021/12/24 12:38:22;;;;;;;8.70;5.40;;;11.20;99.90;;;;;;5014993;28;20929;-79
2021/12/24 12:40:48;;;;;;;9.50;5.33;;;11.30;99.90;;;;;;5015745;28;20460;-80
2021/12/24 12:43:14;;;;;;;11.27;6.13;;;11.30;99.90;;;;;;5015686;28;20443;-81
2021/12/24 12:45:41;;;;;;;9.50;5.37;;;11.30;99.90;;;;;;5015768;28;20357;-80
2021/12/24 12:48:23;;;;;;;6.93;4.50;;;11.20;99.90;;;;;;5015367;28;20570;-80
2021/12/24 12:50:59;;;;;;;10.30;5.33;;;11.20;99.90;;;;;;5015449;28;20524;-81
2021/12/24 12:53:31;;;;;;;8.07;4.57;;;11.10;99.90;;;;;;5015363;28;20499;-80
2021/12/24 12:56:13;;;;;;;8.00;5.00;;;11.10;99.90;;;;;;4997854;28;20463;-79
2021/12/24 12:58:44;;;;;;;9.53;5.00;;;11.10;99.90;;;;;;4995974;28;20491;-78
2021/12/24 13:01:19;;;;;;;12.63;5.00;;;11.10;99.90;;;;;;5014533;28;20474;-79
2021/12/24 13:04:03;;;;;;;9.50;4.47;;;11.10;99.90;;;;;;5014593;28;20582;-78
2021/12/24 13:06:45;;;;;;;10.07;5.37;;;11.10;99.90;;;;;;4996495;28;20466;-79
2021/12/24 13:09:13;;;;;;;10.73;5.10;;;11.10;99.90;;;;;;5015017;28;20431;-80
2021/12/24 13:11:47;;;;;;;12.30;5.33;;;11.10;99.90;;;;;;4996233;28;20459;-79
2021/12/24 13:14:15;;;;;;;11.30;5.53;;;11.10;99.90;;;;;;5014741;28;20412;-81
2021/12/24 13:16:46;;;;;;;10.53;5.60;;;11.10;99.90;;;;;;5014492;28;20423;-78
2021/12/24 13:24:59;;;;;;;13.50;6.50;;;11.00;99.90;;;;;;5015260;28;20498;-80
2021/12/24 13:27:29;;;;;;;10.23;6.73;;;10.90;99.90;;;;;;5014010;28;20792;-81
2021/12/24 13:30:17;;;;;;;9.97;6.90;;;10.90;99.90;;;;;;4996467;28;20558;-79
2021/12/24 13:32:52;;;;;;;17.47;7.40;;;10.80;99.90;;;;;;4995947;28;20522;-79
2021/12/24 13:35:22;;;;;;;13.60;7.80;;;10.90;99.90;;;;;;5013244;28;20415;-79
2021/12/24 13:37:48;;;;;;;12.90;7.23;;;10.80;99.90;;;;;;5013508;28;20490;-78
2021/12/24 13:40:20;;;;;;;12.20;7.37;;;10.70;99.90;;;;;;5012477;28;20506;-81
2021/12/24 13:42:55;;;;;;;12.07;8.10;;;10.80;99.90;;;;;;5013532;28;20555;-82
2021/12/24 13:45:22;;;;;;;15.47;6.90;;;10.80;99.90;;;;;;5013684;28;20910;-81
2021/12/24 13:48:03;;;;;;;15.00;6.97;;;10.80;99.90;;;;;;5013171;28;20420;-82
2021/12/24 13:56:23;;;;;;;15.37;7.83;;;10.50;99.90;;;;;;4997908;28;21011;-83
2021/12/24 13:58:54;;;;;;;24.20;8.67;;;10.50;99.90;;;;;;4977719;28;20435;-82
2021/12/24 14:01:28;;;;;;;14.40;8.63;;;10.60;99.90;;;;;;4997163;28;20483;-83
2021/12/24 14:03:54;;;;;;;12.50;8.60;;;10.50;99.90;;;;;;4987635;28;20424;-82
2021/12/24 14:06:21;;;;;;;18.83;9.70;;;10.60;99.90;;;;;;5013119;28;20853;-81
2021/12/24 14:08:46;;;;;;;17.03;9.10;;;10.50;99.90;;;;;;5007965;28;20466;-82
2021/12/24 14:11:18;;;;;;;15.70;9.93;;;10.50;99.90;;;;;;5005438;28;20440;-82
2021/12/24 14:13:52;;;;;;;16.97;8.50;;;10.50;99.90;;;;;;4995688;28;20216;-82
2021/12/24 14:19:43;;;;;;;15.20;8.73;;;10.60;99.90;;;;;;5013801;28;20414;-82
2021/12/24 14:22:11;;;;;;;13.83;8.00;;;10.50;99.90;;;;;;5000118;28;20417;-82
2021/12/24 14:24:49;;;;;;;13.23;7.40;;;10.40;99.90;;;;;;5013769;28;20499;-81
2021/12/24 14:27:17;;;;;;;14.70;7.30;;;10.40;99.90;;;;;;5012923;28;20407;-81
2021/12/24 14:29:44;;;;;;;15.37;8.20;;;10.40;99.90;;;;;;5013643;28;20503;-82
2021/12/24 14:32:16;;;;;;;18.47;8.60;;;10.30;99.90;;;;;;5013275;28;20425;-82
2021/12/24 14:34:49;;;;;;;13.37;8.50;;;10.30;99.90;;;;;;5013438;28;20412;-82
2021/12/24 14:37:20;;;;;;;12.90;7.57;;;10.30;99.90;;;;;;5012729;28;20415;-82
2021/12/24 14:42:35;;;;;;;12.63;7.47;;;10.40;99.90;;;;;;4974606;23;20485;-82
2021/12/24 14:45:24;;;;;;;11.93;7.87;;;10.40;99.90;;;;;;5014631;28;20427;-81
2021/12/24 14:48:25;;;;;;;14.07;7.30;;;10.30;99.90;;;;;;5026141;28;20469;-82
2021/12/24 14:50:51;;;;;;;15.63;9.73;;;10.40;99.90;;;;;;5027655;28;20455;-83
2021/12/24 14:53:26;;;;;;;18.47;9.13;;;10.40;99.90;;;;;;5030510;28;20423;-83